createdAt,value
2018-05-12T00:00:09.771Z,11.30
2018-05-12T00:02:38.042Z,10.63
2018-05-12T00:05:06.323Z,10.53
2018-05-12T00:07:34.594Z,11.30
2018-05-12T00:10:03.241Z,11.00
2018-05-12T00:12:31.527Z,10.67
2018-05-12T00:14:59.885Z,11.40
2018-05-12T00:17:28.119Z,10.03
2018-05-12T00:19:56.417Z,12.43
2018-05-12T00:22:24.691Z,12.03
2018-05-12T00:24:53.050Z,10.90
2018-05-12T00:27:21.484Z,11.00
2018-05-12T00:29:49.767Z,10.80
2018-05-12T00:32:18.030Z,10.50
2018-05-12T00:34:46.367Z,10.70
2018-05-12T00:37:14.734Z,10.80
2018-05-12T00:39:43.024Z,10.27
2018-05-12T00:42:11.285Z,11.20
2018-05-12T00:44:39.554Z,11.50
2018-05-12T00:47:07.842Z,10.43
2018-05-12T00:49:36.129Z,11.03
2018-05-12T00:52:05.206Z,10.53
2018-05-12T00:54:33.488Z,10.83
2018-05-12T00:57:01.770Z,11.00
2018-05-12T00:59:30.476Z,11.37
2018-05-12T01:01:58.873Z,11.40
2018-05-12T01:04:27.130Z,12.00
2018-05-12T01:06:55.389Z,11.50
2018-05-12T01:09:23.730Z,12.13
2018-05-12T01:11:52.040Z,11.30
2018-05-12T01:14:20.333Z,11.67
2018-05-12T01:16:49.230Z,11.73
2018-05-12T01:19:17.490Z,11.53
2018-05-12T01:21:45.779Z,10.73
2018-05-12T01:24:14.138Z,12.33
2018-05-12T01:26:42.471Z,12.27
2018-05-12T01:29:10.722Z,12.87
2018-05-12T01:31:39.043Z,13.10
2018-05-12T01:34:07.338Z,13.20
2018-05-12T01:36:35.944Z,13.47
2018-05-12T01:39:04.219Z,12.43
2018-05-12T01:41:32.527Z,13.07
2018-05-12T01:44:00.821Z,11.97
2018-05-12T01:46:29.105Z,12.30
2018-05-12T01:48:57.389Z,12.10
2018-05-12T01:51:25.665Z,11.40
2018-05-12T01:53:53.956Z,11.73
2018-05-12T01:56:22.241Z,11.93
2018-05-12T01:58:51.245Z,12.17
2018-05-12T02:01:20.282Z,11.50
2018-05-12T02:03:48.577Z,11.20
2018-05-12T02:06:16.850Z,10.83
2018-05-12T02:08:45.146Z,9.93
2018-05-12T02:11:13.411Z,11.57
2018-05-12T02:13:41.709Z,11.17
2018-05-12T02:16:10.013Z,10.50
2018-05-12T02:18:38.296Z,11.23
2018-05-12T02:21:06.586Z,11.00
2018-05-12T02:23:34.857Z,11.60
2018-05-12T02:26:03.143Z,10.93
2018-05-12T02:28:31.454Z,9.67
2018-05-12T02:30:59.718Z,10.07
2018-05-12T02:33:28.039Z,10.30
2018-05-12T02:35:56.330Z,9.97
2018-05-12T02:38:24.597Z,10.20
2018-05-12T02:40:52.899Z,9.80
2018-05-12T02:43:21.193Z,9.73
2018-05-12T02:45:49.530Z,10.70
2018-05-12T02:48:17.761Z,9.70
2018-05-12T02:50:46.049Z,10.40
2018-05-12T02:53:14.516Z,9.63
2018-05-12T02:55:42.778Z,10.30
2018-05-12T02:58:11.088Z,9.77
2018-05-12T03:00:39.394Z,10.37
2018-05-12T03:03:07.680Z,9.40
2018-05-12T03:05:35.958Z,9.90
2018-05-12T03:08:04.258Z,9.77
2018-05-12T03:10:32.534Z,9.70
2018-05-12T03:13:00.810Z,9.67
2018-05-12T03:15:29.104Z,10.50
2018-05-12T03:17:57.401Z,9.90
2018-05-12T03:20:25.658Z,10.43
2018-05-12T03:22:53.964Z,10.03
2018-05-12T03:25:22.454Z,9.43
2018-05-12T03:27:50.750Z,10.00
2018-05-12T03:30:19.093Z,9.47
2018-05-12T03:32:47.378Z,10.30
2018-05-12T03:35:15.694Z,10.03
2018-05-12T03:37:43.974Z,10.03
2018-05-12T03:40:12.237Z,10.47
2018-05-12T03:42:40.524Z,9.30
2018-05-12T03:45:08.792Z,9.90
2018-05-12T03:47:37.078Z,9.93
2018-05-12T03:50:06.164Z,9.67
2018-05-12T03:52:34.421Z,10.30
2018-05-12T03:55:02.710Z,10.50
2018-05-12T03:57:30.973Z,11.13
2018-05-12T03:59:59.306Z,11.10
2018-05-12T04:02:27.529Z,9.77
2018-05-12T04:05:07.661Z,9.97
2018-05-12T04:07:47.760Z,9.90
2018-05-12T04:10:23.181Z,11.20
2018-05-12T04:12:51.416Z,10.60
2018-05-12T04:15:19.693Z,10.30
2018-05-12T04:17:47.991Z,10.93
2018-05-12T04:20:16.335Z,11.37
2018-05-12T04:22:44.772Z,10.33
2018-05-12T04:25:13.106Z,10.03
2018-05-12T04:27:41.375Z,10.50
2018-05-12T04:30:09.699Z,11.67
2018-05-12T04:32:38.796Z,12.10
2018-05-12T04:35:07.073Z,10.97
2018-05-12T04:37:35.402Z,10.90
2018-05-12T04:40:03.688Z,10.27
2018-05-12T04:42:32.782Z,10.80
2018-05-12T04:45:01.091Z,12.03
2018-05-12T04:47:29.369Z,10.50
2018-05-12T04:49:57.656Z,10.50
2018-05-12T04:52:26.304Z,10.50
2018-05-12T04:54:54.619Z,9.97
2018-05-12T04:57:22.868Z,10.87
2018-05-12T04:59:51.201Z,9.90
2018-05-12T05:02:19.522Z,11.10
2018-05-12T05:04:48.714Z,10.50
2018-05-12T05:07:17.037Z,10.63
2018-05-12T05:09:45.275Z,11.40
2018-05-12T05:12:13.553Z,10.60
2018-05-12T05:14:41.818Z,11.00
2018-05-12T05:17:10.946Z,12.13
2018-05-12T05:19:39.302Z,11.50
2018-05-12T05:22:07.574Z,11.67
2018-05-12T05:24:36.516Z,10.90
2018-05-12T05:27:04.851Z,10.93
2018-05-12T05:29:33.162Z,10.50
2018-05-12T05:32:01.443Z,11.40
2018-05-12T05:34:29.762Z,10.90
2018-05-12T05:36:58.012Z,11.47
2018-05-12T05:39:27.357Z,11.57
2018-05-12T05:41:55.618Z,11.70
2018-05-12T05:44:23.935Z,11.07
2018-05-12T05:46:52.212Z,11.03
2018-05-12T05:49:20.490Z,12.00
2018-05-12T05:51:49.099Z,12.60
2018-05-12T05:54:17.376Z,11.83
2018-05-12T05:56:45.644Z,11.87
2018-05-12T05:59:13.951Z,12.57
2018-05-12T06:01:42.219Z,11.60
2018-05-12T06:04:10.528Z,11.77
2018-05-12T06:06:38.837Z,12.07
2018-05-12T06:09:07.130Z,12.10
2018-05-12T06:11:35.395Z,11.87
2018-05-12T06:14:03.682Z,12.67
2018-05-12T06:16:31.962Z,12.20
2018-05-12T06:19:00.258Z,13.83
2018-05-12T06:21:28.536Z,13.27
2018-05-12T06:23:56.830Z,14.00
2018-05-12T06:26:25.128Z,14.43
2018-05-12T06:28:53.426Z,14.77
2018-05-12T06:31:21.790Z,14.50
2018-05-12T06:33:50.109Z,14.40
2018-05-12T06:36:18.422Z,14.37
2018-05-12T06:38:46.683Z,15.07
2018-05-12T06:41:14.983Z,14.77
2018-05-12T06:43:43.253Z,14.93
2018-05-12T06:46:11.558Z,15.57
2018-05-12T06:48:40.883Z,14.20
2018-05-12T06:51:09.830Z,15.20
2018-05-12T06:53:38.131Z,16.17
2018-05-12T06:56:06.424Z,15.10
2018-05-12T06:58:34.707Z,14.03
2018-05-12T07:01:02.998Z,15.37
2018-05-12T07:03:31.278Z,15.10
2018-05-12T07:05:59.621Z,15.80
2018-05-12T07:08:27.938Z,17.60
2018-05-12T07:10:56.247Z,17.80
2018-05-12T07:13:24.522Z,16.40
2018-05-12T07:15:52.870Z,17.47
2018-05-12T07:18:21.142Z,16.77
2018-05-12T07:20:49.461Z,15.97
2018-05-12T07:23:17.822Z,16.63
2018-05-12T07:25:46.114Z,18.07
2018-05-12T07:28:14.432Z,18.00
2018-05-12T07:30:42.713Z,17.60
2018-05-12T07:33:11.008Z,19.30
2018-05-12T07:35:39.258Z,21.80
2018-05-12T07:38:07.582Z,17.30
2018-05-12T07:40:35.873Z,18.00
2018-05-12T07:43:04.188Z,19.17
2018-05-12T07:45:32.526Z,19.10
2018-05-12T07:48:00.851Z,20.20
2018-05-12T07:50:29.131Z,20.50
2018-05-12T07:52:57.427Z,20.30
2018-05-12T07:55:25.710Z,20.30
2018-05-12T07:57:54.000Z,19.53
2018-05-12T08:00:22.376Z,19.50
2018-05-12T08:02:50.673Z,18.30
2018-05-12T08:05:18.990Z,18.57
2018-05-12T08:07:47.269Z,20.57
2018-05-12T08:10:15.566Z,18.27
2018-05-12T08:12:43.893Z,18.40
2018-05-12T08:15:12.528Z,19.90
2018-05-12T08:17:40.797Z,18.97
2018-05-12T08:20:09.616Z,19.27
2018-05-12T08:22:37.914Z,19.73
2018-05-12T08:25:06.255Z,20.40
2018-05-12T08:27:34.610Z,19.77
2018-05-12T08:30:02.883Z,18.93
2018-05-12T08:32:31.171Z,18.87
2018-05-12T08:34:59.487Z,17.77
2018-05-12T08:37:27.782Z,19.30
2018-05-12T08:39:56.086Z,19.20
2018-05-12T08:42:24.453Z,19.57
2018-05-12T08:44:52.699Z,17.87
2018-05-12T08:47:21.006Z,17.47
2018-05-12T08:49:49.290Z,18.33
2018-05-12T08:52:17.613Z,16.47
2018-05-12T08:54:45.913Z,19.83
2018-05-12T08:57:14.187Z,20.00
2018-05-12T08:59:42.504Z,19.30
2018-05-12T09:02:10.767Z,16.67
2018-05-12T09:04:39.058Z,18.70
2018-05-12T09:07:07.384Z,15.80
2018-05-12T09:09:35.706Z,16.10
2018-05-12T09:12:04.037Z,16.83
2018-05-12T09:14:32.366Z,15.10
2018-05-12T09:17:00.689Z,17.20
2018-05-12T09:19:28.976Z,17.40
2018-05-12T09:21:57.343Z,17.37
2018-05-12T09:24:25.653Z,19.10
2018-05-12T09:26:53.969Z,18.20
2018-05-12T09:29:22.259Z,18.57
2018-05-12T09:31:50.531Z,16.43
2018-05-12T09:34:18.887Z,16.17
2018-05-12T09:36:48.349Z,15.37
2018-05-12T09:39:16.669Z,14.40
2018-05-12T09:41:44.933Z,14.10
2018-05-12T09:44:13.295Z,13.60
2018-05-12T09:46:41.557Z,13.00
2018-05-12T09:49:09.927Z,10.20
2018-05-12T09:51:38.180Z,10.70
2018-05-12T09:54:07.142Z,9.70
2018-05-12T09:56:35.383Z,11.90
2018-05-12T09:59:03.684Z,12.10
2018-05-12T10:01:31.960Z,12.10
2018-05-12T10:04:00.340Z,13.83
2018-05-12T10:06:28.610Z,13.13
2018-05-12T10:08:56.888Z,14.60
2018-05-12T10:11:25.150Z,15.07
2018-05-12T10:13:53.457Z,15.70
2018-05-12T10:16:21.776Z,16.03
2018-05-12T10:18:50.144Z,13.50
2018-05-12T10:21:18.462Z,12.43
2018-05-12T10:23:46.713Z,13.33
2018-05-12T10:26:15.046Z,13.00
2018-05-12T10:28:43.292Z,12.30
2018-05-12T10:31:11.605Z,12.40
2018-05-12T10:33:39.908Z,13.17
2018-05-12T10:36:08.172Z,13.23
2018-05-12T10:38:36.599Z,13.70
2018-05-12T10:41:05.865Z,12.80
2018-05-12T10:43:34.154Z,12.83
2018-05-12T10:46:02.449Z,15.57
2018-05-12T10:48:30.946Z,12.23
2018-05-12T10:50:59.237Z,12.30
2018-05-12T10:53:27.507Z,12.80
2018-05-12T10:55:55.805Z,13.20
2018-05-12T10:58:24.144Z,12.20
2018-05-12T11:00:52.406Z,12.63
2018-05-12T11:03:20.736Z,12.87
2018-05-12T11:05:48.990Z,13.00
2018-05-12T11:08:17.327Z,14.87
2018-05-12T11:10:45.603Z,14.00
2018-05-12T11:13:13.894Z,12.70
2018-05-12T11:15:42.147Z,9.80
2018-05-12T11:18:10.455Z,8.70
2018-05-12T11:20:38.779Z,11.50
2018-05-12T11:23:07.082Z,11.47
2018-05-12T11:25:35.489Z,10.83
2018-05-12T11:28:03.996Z,11.57
2018-05-12T11:30:32.446Z,10.63
2018-05-12T11:33:00.789Z,11.70
2018-05-12T11:35:29.337Z,12.07
2018-05-12T11:37:57.586Z,12.40
2018-05-12T11:40:25.870Z,11.00
2018-05-12T11:42:54.199Z,8.97
2018-05-12T11:45:22.476Z,9.60
2018-05-12T11:47:50.796Z,10.20
2018-05-12T11:50:19.105Z,10.20
2018-05-12T11:52:47.395Z,9.83
2018-05-12T11:55:15.707Z,10.70
2018-05-12T11:57:44.000Z,9.87
2018-05-12T12:00:12.583Z,9.60
2018-05-12T12:02:40.905Z,9.27
2018-05-12T12:05:09.222Z,10.20
2018-05-12T12:07:37.775Z,10.50
2018-05-12T12:10:06.115Z,10.20
2018-05-12T12:12:34.418Z,10.07
2018-05-12T12:15:02.778Z,11.70
2018-05-12T12:17:31.036Z,10.10
2018-05-12T12:19:59.330Z,9.70
2018-05-12T12:22:27.591Z,10.10
2018-05-12T12:24:55.942Z,10.07
2018-05-12T12:27:24.292Z,8.80
2018-05-12T12:29:54.019Z,8.20
2018-05-12T12:32:22.324Z,8.20
2018-05-12T12:34:50.660Z,6.50
2018-05-12T12:37:18.915Z,6.60
2018-05-12T12:39:47.895Z,6.50
2018-05-12T12:42:16.182Z,7.27
2018-05-12T12:44:44.566Z,7.07
2018-05-12T12:47:12.805Z,6.50
2018-05-12T12:49:41.083Z,5.90
2018-05-12T12:52:09.453Z,6.60
2018-05-12T12:54:38.211Z,6.73
2018-05-12T12:57:06.509Z,6.47
2018-05-12T12:59:34.801Z,6.40
2018-05-12T13:02:03.118Z,6.70
2018-05-12T13:04:31.383Z,7.33
2018-05-12T13:06:59.664Z,6.40
2018-05-12T13:09:27.996Z,7.00
2018-05-12T13:11:56.379Z,6.73
2018-05-12T13:14:24.672Z,6.80
2018-05-12T13:16:52.922Z,8.05
2018-05-12T13:19:21.187Z,7.43
2018-05-12T13:21:49.483Z,7.30
2018-05-12T13:24:17.759Z,7.10
2018-05-12T13:26:46.082Z,6.90
2018-05-12T13:29:14.371Z,7.22
2018-05-12T13:31:42.670Z,7.07
2018-05-12T13:34:11.183Z,7.30
2018-05-12T13:36:39.454Z,7.73
2018-05-12T13:39:07.748Z,7.37
2018-05-12T13:41:36.170Z,6.07
2018-05-12T13:44:04.465Z,6.90
2018-05-12T13:46:32.759Z,6.60
2018-05-12T13:49:01.103Z,6.10
2018-05-12T13:51:29.370Z,6.60
2018-05-12T13:53:57.702Z,7.43
2018-05-12T13:56:25.978Z,7.50
2018-05-12T13:58:54.274Z,6.63
2018-05-12T14:01:22.614Z,7.23
2018-05-12T14:03:50.874Z,6.90
2018-05-12T14:06:19.149Z,7.53
2018-05-12T14:08:47.538Z,7.00
2018-05-12T14:11:15.830Z,6.70
2018-05-12T14:13:44.199Z,6.57
2018-05-12T14:16:12.374Z,6.20
2018-05-12T14:18:40.993Z,6.50
2018-05-12T14:21:09.292Z,7.40
2018-05-12T14:23:37.608Z,6.60
2018-05-12T14:26:06.107Z,7.20
2018-05-12T14:28:34.388Z,6.73
2018-05-12T14:31:02.748Z,6.60
2018-05-12T14:33:31.186Z,6.73
2018-05-12T14:35:59.437Z,6.30
2018-05-12T14:38:27.711Z,6.33
2018-05-12T14:40:56.098Z,6.67
2018-05-12T14:43:24.434Z,5.80
2018-05-12T14:45:52.790Z,6.20
2018-05-12T14:48:21.050Z,6.70
2018-05-12T14:50:49.346Z,6.10
2018-05-12T14:53:17.606Z,6.05
2018-05-12T14:55:45.911Z,6.80
2018-05-12T14:58:14.198Z,6.47
2018-05-12T15:00:42.491Z,5.93
2018-05-12T15:03:10.750Z,5.68
2018-05-12T15:05:39.026Z,6.00
2018-05-12T15:08:07.343Z,6.30
2018-05-12T15:10:35.633Z,6.43
2018-05-12T15:13:04.276Z,5.30
2018-05-12T15:15:32.555Z,6.23
2018-05-12T15:18:00.889Z,6.00
2018-05-12T15:20:29.243Z,6.20
2018-05-12T15:22:57.513Z,6.10
2018-05-12T15:25:25.966Z,5.97
2018-05-12T15:27:54.294Z,6.43
2018-05-12T15:30:22.590Z,6.20
2018-05-12T15:32:50.859Z,6.00
2018-05-12T15:35:19.109Z,6.87
2018-05-12T15:37:47.946Z,6.20
2018-05-12T15:40:16.248Z,6.10
2018-05-12T15:42:44.531Z,6.80
2018-05-12T15:45:12.812Z,6.40
2018-05-12T15:47:41.113Z,6.77
2018-05-12T15:50:09.379Z,6.40
2018-05-12T15:52:37.693Z,6.40
2018-05-12T15:55:05.979Z,7.10
2018-05-12T15:57:34.270Z,6.53
2018-05-12T16:00:02.558Z,6.50
2018-05-12T16:02:31.750Z,6.20
2018-05-12T16:05:00.041Z,6.83
2018-05-12T16:07:28.334Z,6.70
2018-05-12T16:09:56.608Z,6.90
2018-05-12T16:12:24.892Z,6.93
2018-05-12T16:14:53.162Z,6.40
2018-05-12T16:17:21.474Z,6.70
2018-05-12T16:19:49.756Z,9.33
2018-05-12T16:22:18.019Z,7.50
2018-05-12T16:24:46.374Z,7.17
2018-05-12T16:27:14.654Z,7.40
2018-05-12T16:29:42.963Z,6.70
2018-05-12T16:32:11.209Z,7.23
2018-05-12T16:34:39.513Z,6.20
2018-05-12T16:37:07.969Z,6.53
2018-05-12T16:39:36.270Z,6.67
2018-05-12T16:42:05.550Z,6.20
2018-05-12T16:44:33.911Z,6.50
2018-05-12T16:47:02.419Z,6.90
2018-05-12T16:49:30.715Z,6.60
2018-05-12T16:51:58.978Z,6.40
2018-05-12T16:54:27.269Z,6.90
2018-05-12T16:56:55.561Z,7.10
2018-05-12T16:59:23.878Z,7.70
2018-05-12T17:01:52.156Z,9.67
2018-05-12T17:04:20.434Z,6.97
2018-05-12T17:06:48.695Z,7.50
2018-05-12T17:09:17.012Z,7.03
2018-05-12T17:11:45.290Z,7.00
2018-05-12T17:14:13.620Z,7.20
2018-05-12T17:16:41.905Z,7.67
2018-05-12T17:19:10.154Z,7.25
2018-05-12T17:21:38.456Z,7.57
2018-05-12T17:24:06.719Z,6.87
2018-05-12T17:26:35.726Z,7.27
2018-05-12T17:29:04.001Z,7.60
2018-05-12T17:31:32.300Z,7.50
2018-05-12T17:34:00.633Z,7.73
2018-05-12T17:36:28.932Z,7.83
2018-05-12T17:38:57.231Z,7.50
2018-05-12T17:41:25.536Z,8.10
2018-05-12T17:43:54.287Z,7.90
2018-05-12T17:46:22.801Z,7.78
2018-05-12T17:48:51.123Z,7.83
2018-05-12T17:51:19.453Z,7.27
2018-05-12T17:53:47.743Z,7.67
2018-05-12T17:56:16.032Z,8.37
2018-05-12T17:58:44.424Z,7.10
2018-05-12T18:01:12.768Z,7.43
2018-05-12T18:03:41.022Z,7.73
2018-05-12T18:06:09.331Z,8.30
2018-05-12T18:08:37.651Z,7.60
2018-05-12T18:11:05.930Z,7.70
2018-05-12T18:13:34.268Z,7.93
2018-05-12T18:16:02.532Z,8.47
2018-05-12T18:18:30.818Z,8.60
2018-05-12T18:20:59.173Z,8.90
2018-05-12T18:23:27.448Z,8.52
2018-05-12T18:25:55.739Z,8.50
2018-05-12T18:28:24.061Z,8.70
2018-05-12T18:30:52.331Z,8.53
2018-05-12T18:33:20.627Z,8.40
2018-05-12T18:35:49.055Z,8.63
2018-05-12T18:38:17.330Z,8.20
2018-05-12T18:40:45.603Z,8.00
2018-05-12T18:43:13.888Z,8.38
2018-05-12T18:45:42.155Z,10.10
2018-05-12T18:48:10.450Z,8.10
2018-05-12T18:50:38.797Z,8.80
2018-05-12T18:53:07.027Z,8.67
2018-05-12T18:55:35.387Z,8.40
2018-05-12T18:58:03.702Z,8.40
2018-05-12T19:00:31.994Z,7.80
2018-05-12T19:03:00.283Z,8.53
2018-05-12T19:05:28.649Z,8.87
2018-05-12T19:07:56.896Z,9.50
2018-05-12T19:10:25.313Z,9.93
2018-05-12T19:12:53.575Z,9.57
2018-05-12T19:15:21.875Z,8.85
2018-05-12T19:17:50.148Z,9.53
2018-05-12T19:20:18.472Z,9.25
2018-05-12T19:22:46.830Z,10.57
2018-05-12T19:25:15.139Z,10.07
2018-05-12T19:27:43.433Z,9.90
2018-05-12T19:30:11.736Z,9.77
2018-05-12T19:32:40.028Z,11.23
2018-05-12T19:35:09.342Z,9.90
2018-05-12T19:37:37.619Z,10.20
2018-05-12T19:40:05.955Z,10.97
2018-05-12T19:42:34.351Z,10.10
2018-05-12T19:45:02.622Z,10.70
2018-05-12T19:47:30.919Z,10.57
2018-05-12T19:49:59.372Z,12.15
2018-05-12T19:52:28.845Z,11.23
2018-05-12T19:54:57.233Z,10.50
2018-05-12T19:57:26.403Z,10.80
2018-05-12T19:59:54.705Z,11.60
2018-05-12T20:02:23.015Z,11.40
2018-05-12T20:04:51.327Z,11.17
2018-05-12T20:07:19.712Z,11.40
2018-05-12T20:09:48.029Z,11.33
2018-05-12T20:12:22.225Z,11.77
2018-05-12T20:14:50.510Z,11.73
2018-05-12T20:17:18.821Z,11.23
2018-05-12T20:19:47.136Z,10.77
2018-05-12T20:25:25.354Z,11.00
2018-05-12T20:27:53.696Z,10.73
2018-05-12T20:30:22.051Z,10.98
2018-05-12T20:32:51.377Z,11.53
2018-05-12T20:35:19.630Z,9.90
2018-05-12T20:37:47.933Z,5.33
2018-05-12T20:40:16.237Z,6.43
2018-05-12T20:42:44.542Z,8.18
2018-05-12T20:45:12.847Z,9.57
2018-05-12T20:47:41.160Z,9.27
2018-05-12T20:50:09.436Z,9.88
2018-05-12T20:52:39.585Z,9.40
2018-05-12T20:55:08.080Z,10.47
2018-05-12T20:57:36.377Z,9.27
2018-05-12T21:00:04.722Z,9.90
2018-05-12T21:02:33.069Z,9.57
2018-05-12T21:05:01.370Z,9.50
2018-05-12T21:07:29.637Z,9.85
2018-05-12T21:09:57.972Z,9.97
2018-05-12T21:12:26.347Z,9.83
2018-05-12T21:15:02.037Z,9.80
2018-05-12T21:17:30.346Z,9.57
2018-05-12T21:19:58.839Z,10.20
2018-05-12T21:22:30.299Z,9.87
2018-05-12T21:24:59.631Z,9.33
2018-05-12T21:27:28.255Z,9.63
2018-05-12T21:29:56.586Z,10.30
2018-05-12T21:32:25.008Z,11.47
2018-05-12T21:34:53.378Z,9.10
2018-05-12T21:37:21.751Z,9.90
2018-05-12T21:39:50.075Z,9.93
2018-05-12T21:42:18.363Z,17.30
2018-05-12T21:44:46.686Z,14.60
2018-05-12T21:47:14.992Z,10.10
2018-05-12T21:49:43.362Z,10.73
2018-05-12T21:52:11.658Z,11.47
2018-05-12T21:54:39.987Z,12.23
2018-05-12T21:57:08.296Z,11.83
2018-05-12T21:59:36.540Z,12.30
2018-05-12T22:02:05.213Z,11.60
2018-05-12T22:04:33.513Z,11.90
2018-05-12T22:07:01.820Z,11.50
2018-05-12T22:09:30.091Z,9.67
2018-05-12T22:11:58.398Z,7.17
2018-05-12T22:14:26.678Z,6.77
2018-05-12T22:16:54.976Z,5.70
2018-05-12T22:19:23.246Z,5.93
2018-05-12T22:21:51.535Z,6.03
2018-05-12T22:24:19.879Z,4.50
2018-05-12T22:26:48.125Z,4.40
2018-05-12T22:29:16.475Z,4.90
2018-05-12T22:31:44.749Z,3.40
2018-05-12T22:34:13.031Z,4.20
2018-05-12T22:36:41.308Z,4.83
2018-05-12T22:39:09.589Z,6.03
2018-05-12T22:41:37.844Z,5.40
2018-05-12T22:44:06.125Z,6.60
2018-05-12T22:46:34.399Z,6.13
2018-05-12T22:49:02.824Z,7.07
2018-05-12T22:51:31.186Z,6.28
2018-05-12T22:53:59.514Z,7.40
2018-05-12T22:56:27.770Z,8.73
2018-05-12T22:58:56.089Z,7.60
2018-05-12T23:01:24.378Z,7.77
2018-05-12T23:03:52.714Z,8.20
2018-05-12T23:06:20.981Z,7.70
2018-05-12T23:08:49.283Z,9.50
2018-05-12T23:11:18.345Z,8.87
2018-05-12T23:13:46.717Z,10.93
2018-05-12T23:16:15.014Z,9.15
2018-05-12T23:18:44.330Z,7.03
2018-05-12T23:21:12.632Z,6.57
2018-05-12T23:23:40.926Z,6.23
2018-05-12T23:26:09.239Z,6.72
2018-05-12T23:28:37.524Z,7.87
2018-05-12T23:31:05.825Z,8.17
2018-05-12T23:33:34.100Z,7.70
2018-05-12T23:36:02.443Z,7.33
2018-05-12T23:38:30.687Z,8.00
2018-05-12T23:40:58.975Z,8.07
2018-05-12T23:43:27.236Z,7.27
2018-05-12T23:45:55.529Z,7.90
2018-05-12T23:48:23.801Z,8.20
2018-05-12T23:50:52.082Z,8.37
2018-05-12T23:53:20.360Z,8.98
2018-05-12T23:55:48.684Z,9.18
2018-05-12T23:58:17.042Z,8.75
